Time;durP1;ratioP1;P1;durP2;ratioP2;P2;SDS_P1;SDS_P2;PMS_P1;PMS_P2;Temp;Humidity;BMP_temperature;BMP_pressure;BME280_temperature;BME280_humidity;BME280_pressure;Samples;Min_cycle;Max_cycle;Signal;HPM_P1;HPM_P2
2022/12/11 00:01:18;;;;;;;19.65;10.55;;;;;;;4.72;59.43;97690.25;4406234;32;24783;-96
2022/12/11 00:03:43;;;;;;;22.25;10.15;;;;;;;4.62;59.43;97685.50;4401492;32;20145;-96
2022/12/11 00:06:10;;;;;;;22.75;10.68;;;;;;;4.36;59.42;97688.28;4387622;32;20113;-96
2022/12/11 00:08:36;;;;;;;24.17;10.18;;;;;;;4.47;59.42;97672.41;4400312;32;20085;-96
2022/12/11 00:11:02;;;;;;;23.95;10.50;;;;;;;4.52;59.43;97678.22;4383064;32;20156;-94
2022/12/11 00:13:27;;;;;;;18.12;9.32;;;;;;;4.42;59.43;97667.44;4393737;32;20745;-96
2022/12/11 00:15:53;;;;;;;20.98;10.45;;;;;;;4.42;59.42;97676.91;4397150;32;20118;-96
2022/12/11 00:18:18;;;;;;;20.48;9.43;;;;;;;4.40;59.42;97670.97;4398277;32;20430;-95
2022/12/11 00:20:43;;;;;;;25.23;10.75;;;;;;;4.36;59.43;97677.16;4408296;32;20138;-94
2022/12/11 00:23:09;;;;;;;23.38;11.38;;;;;;;4.34;59.41;97679.81;4406569;32;23679;-95
2022/12/11 00:25:45;;;;;;;24.73;10.88;;;;;;;4.34;59.41;97681.53;4396027;32;20167;-94
2022/12/11 00:28:16;;;;;;;21.17;9.82;;;;;;;4.36;59.43;97678.00;4410499;32;20094;-95
2022/12/11 00:30:42;;;;;;;20.98;10.25;;;;;;;4.36;59.42;97672.84;4409626;32;20158;-96
2022/12/11 00:33:08;;;;;;;18.92;9.40;;;;;;;4.37;59.42;97677.09;4387542;32;20113;-95
2022/12/11 00:35:37;;;;;;;21.90;10.95;;;;;;;4.31;59.42;97697.94;4411381;32;20264;-95
2022/12/11 00:38:02;;;;;;;19.63;9.80;;;;;;;4.07;59.40;97683.47;4396679;32;20061;-93
2022/12/11 00:40:28;;;;;;;20.15;9.68;;;;;;;4.24;59.41;97683.63;4385429;32;24779;-93
2022/12/11 00:42:53;;;;;;;18.33;9.30;;;;;;;4.11;59.41;97678.13;4383614;32;20163;-95
2022/12/11 00:45:19;;;;;;;21.00;10.02;;;;;;;4.11;59.40;97677.28;4397642;32;20134;-95
2022/12/11 00:47:44;;;;;;;20.75;10.13;;;;;;;3.98;59.39;97682.06;4411863;32;20113;-94
2022/12/11 00:50:11;;;;;;;20.52;9.55;;;;;;;4.00;59.40;97691.41;4384461;32;24176;-94
2022/12/11 00:52:36;;;;;;;19.62;8.73;;;;;;;3.91;59.40;97691.75;4389161;32;20105;-94
2022/12/11 00:55:02;;;;;;;17.90;9.07;;;;;;;3.80;59.39;97696.50;4386058;32;20451;-94
2022/12/11 00:57:27;;;;;;;17.60;8.38;;;;;;;3.66;59.38;97688.44;4408567;32;20086;-92
2022/12/11 00:59:52;;;;;;;23.15;8.80;;;;;;;3.67;59.38;97679.81;4398504;32;20142;-92
2022/12/11 01:02:18;;;;;;;19.02;8.88;;;;;;;3.55;59.38;97695.69;4408518;32;20523;-94
2022/12/11 01:04:43;;;;;;;19.98;9.40;;;;;;;3.56;59.37;97687.12;4414952;32;22268;-92
2022/12/11 01:07:09;;;;;;;21.85;10.93;;;;;;;3.62;59.38;97690.28;4396023;32;20128;-95
2022/12/11 01:12:18;;;;;;;17.98;8.80;;;;;;;3.49;59.37;97683.91;4408055;32;20155;-95
2022/12/11 01:14:44;;;;;;;19.87;10.00;;;;;;;3.47;59.38;97685.69;4388928;32;20161;-95
2022/12/11 01:17:09;;;;;;;17.20;8.50;;;;;;;3.52;59.37;97688.94;4398828;32;20109;-96
2022/12/11 01:19:34;;;;;;;18.23;9.13;;;;;;;3.47;59.38;97695.16;4398347;32;26027;-96
2022/12/11 01:22:00;;;;;;;20.37;8.55;;;;;;;3.34;59.37;97694.78;4409388;32;25700;-96
2022/12/11 01:24:25;;;;;;;21.10;8.85;;;;;;;3.52;59.37;97694.09;4418847;32;20519;-93
2022/12/11 01:26:50;;;;;;;23.48;10.07;;;;;;;3.41;59.37;97693.66;4411444;32;20863;-95
2022/12/11 01:29:16;;;;;;;17.70;7.90;;;;;;;3.46;59.36;97708.91;4410028;32;20141;-95
2022/12/11 01:31:41;;;;;;;19.77;9.10;;;;;;;3.51;59.37;97701.84;4388372;32;25712;-96
2022/12/11 01:34:07;;;;;;;20.15;9.05;;;;;;;3.37;59.36;97704.94;4425922;32;27462;-94
2022/12/11 01:36:32;;;;;;;18.23;8.80;;;;;;;3.42;59.37;97708.19;4387872;32;20132;-94
2022/12/11 01:38:57;;;;;;;20.20;8.45;;;;;;;3.36;59.36;97705.84;4412386;32;20144;-95
2022/12/11 01:41:23;;;;;;;16.98;8.32;;;;;;;3.31;59.37;97712.84;4400355;32;20136;-93
2022/12/11 01:44:01;;;;;;;18.27;8.73;;;;;;;3.32;59.36;97712.00;4412946;32;20463;-94
2022/12/11 01:46:26;;;;;;;18.17;9.48;;;;;;;3.39;59.37;97709.13;4426980;32;20462;-94
2022/12/11 01:48:52;;;;;;;21.23;8.77;;;;;;;3.39;59.37;97700.59;4412887;32;20093;-94
2022/12/11 01:51:17;;;;;;;19.70;9.10;;;;;;;3.28;59.36;97715.53;4406421;32;20467;-93
2022/12/11 01:53:45;;;;;;;16.77;8.70;;;;;;;3.22;59.35;97713.19;4411504;32;25829;-93
2022/12/11 01:56:10;;;;;;;14.77;7.70;;;;;;;3.28;59.36;97718.09;4392729;32;20077;-92
2022/12/11 01:58:51;;;;;;;16.83;8.63;;;;;;;3.27;59.36;97719.84;4397615;32;20078;-94
2022/12/11 02:01:24;;;;;;;18.20;8.25;;;;;;;3.26;59.36;97702.75;4392489;32;20109;-93
2022/12/11 02:03:49;;;;;;;16.77;7.93;;;;;;;3.16;59.36;97716.81;4400025;32;20529;-91
2022/12/11 02:06:31;;;;;;;16.77;7.72;;;;;;;3.29;59.36;97712.91;4380791;32;20114;-92
2022/12/11 02:08:56;;;;;;;15.93;7.80;;;;;;;3.26;59.36;97720.72;4412650;32;20086;-91
2022/12/11 02:11:23;;;;;;;11.45;6.22;;;;;;;3.13;59.35;97711.78;4400236;32;20511;-94
2022/12/11 02:13:53;;;;;;;13.88;5.95;;;;;;;2.87;59.33;97715.25;4398277;32;20136;-92
2022/12/11 02:16:27;;;;;;;16.67;7.80;;;;;;;2.95;59.35;97708.13;4412669;32;20144;-92
2022/12/11 02:19:04;;;;;;;16.45;7.45;;;;;;;2.93;59.34;97717.59;4412891;32;20090;-92
2022/12/11 02:21:41;;;;;;;13.15;6.37;;;;;;;3.08;59.35;97718.81;4412946;32;20127;-93
2022/12/11 02:24:18;;;;;;;15.00;7.22;;;;;;;2.88;59.34;97718.66;4387735;32;20402;-93
2022/12/11 02:26:56;;;;;;;15.23;6.50;;;;;;;2.67;59.33;97710.78;4412608;32;20116;-92
2022/12/11 02:29:49;;;;;;;10.20;5.93;;;;;;;2.86;59.33;97712.75;4399990;32;20465;-91
2022/12/11 02:32:25;;;;;;;15.23;7.68;;;;;;;2.77;59.33;97708.72;4408786;32;20098;-95
2022/12/11 02:35:10;;;;;;;14.50;7.53;;;;;;;2.85;59.33;97718.78;4397331;32;20479;-92
2022/12/11 02:37:36;;;;;;;15.15;6.55;;;;;;;2.85;59.33;97705.91;4410294;32;20864;-91
2022/12/11 02:40:01;;;;;;;14.38;6.82;;;;;;;2.71;59.32;97696.94;4384875;32;20082;-93
2022/12/11 02:42:28;;;;;;;18.33;7.85;;;;;;;2.69;59.32;97685.03;4392156;32;20383;-92
2022/12/11 02:44:54;;;;;;;15.55;8.27;;;;;;;2.45;59.32;97692.66;4399039;32;20110;-93
2022/12/11 02:47:19;;;;;;;16.95;7.82;;;;;;;2.69;59.33;97692.75;4387734;32;20122;-92
2022/12/11 02:49:46;;;;;;;17.45;7.53;;;;;;;2.65;59.33;97684.31;4419588;32;20129;-94
2022/12/11 02:52:12;;;;;;;17.10;8.77;;;;;;;2.61;59.32;97685.28;4412108;32;20125;-93
2022/12/11 02:54:37;;;;;;;17.40;7.75;;;;;;;2.73;59.33;97691.75;4412485;32;20125;-92
2022/12/11 02:57:06;;;;;;;15.75;7.03;;;;;;;2.67;59.33;97690.22;4407532;32;20137;-94
2022/12/11 02:59:37;;;;;;;15.02;7.43;;;;;;;2.78;59.33;97688.12;4391977;32;20065;-93
2022/12/11 03:02:02;;;;;;;22.25;8.63;;;;;;;2.73;59.33;97689.16;4396850;32;20509;-93
2022/12/11 03:04:28;;;;;;;17.75;8.25;;;;;;;2.78;59.33;97692.41;4388164;32;20106;-93
2022/12/11 03:06:54;;;;;;;20.17;8.05;;;;;;;2.87;59.33;97688.72;4409940;32;20132;-91
2022/12/11 03:09:20;;;;;;;16.37;8.05;;;;;;;2.97;59.34;97698.63;4411403;32;20115;-91
2022/12/11 03:11:46;;;;;;;16.83;8.13;;;;;;;2.94;59.34;97679.91;4404191;32;20747;-91
2022/12/11 03:14:11;;;;;;;20.30;8.27;;;;;;;2.83;59.34;97677.69;4398986;32;27722;-93
2022/12/11 03:16:43;;;;;;;17.45;7.75;;;;;;;2.76;59.33;97683.94;4404237;32;23833;-92
2022/12/11 03:19:26;;;;;;;13.40;6.85;;;;;;;2.91;59.34;97678.28;4397631;32;20133;-92
2022/12/11 03:21:53;;;;;;;15.80;7.62;;;;;;;2.86;59.33;97687.03;4399971;32;20208;-92
2022/12/11 03:24:45;;;;;;;19.23;7.97;;;;;;;2.78;59.32;97679.56;4397041;32;20160;-92
2022/12/11 03:27:16;;;;;;;17.58;7.18;;;;;;;2.93;59.33;97688.50;4418083;32;20112;-94
2022/12/11 03:29:56;;;;;;;14.68;7.70;;;;;;;2.90;59.34;97689.44;4399335;32;20108;-96
2022/12/11 03:32:24;;;;;;;19.33;7.03;;;;;;;2.92;59.34;97681.69;4377884;32;20944;-93
2022/12/11 03:35:32;;;;;;;15.60;6.65;;;;;;;2.82;59.34;97677.72;4389186;32;20240;-94
2022/12/11 03:38:00;;;;;;;19.40;7.60;;;;;;;2.81;59.34;97665.78;4365492;32;20063;-94
2022/12/11 03:40:26;;;;;;;20.58;7.72;;;;;;;2.82;59.34;97680.31;4386489;32;20828;-93
2022/12/11 03:42:51;;;;;;;14.57;7.20;;;;;;;2.73;59.33;97673.75;4409903;32;28914;-93
2022/12/11 03:45:17;;;;;;;17.33;7.53;;;;;;;2.90;59.34;97670.63;4410002;32;20090;-93
2022/12/11 03:47:43;;;;;;;12.35;6.15;;;;;;;2.81;59.34;97684.59;4397337;32;20109;-92
2022/12/11 03:50:09;;;;;;;16.42;7.35;;;;;;;2.75;59.33;97687.38;4412280;32;20442;-91
2022/12/11 03:52:34;;;;;;;16.65;7.62;;;;;;;2.62;59.32;97691.28;4387338;32;20109;-95
2022/12/11 03:55:00;;;;;;;16.95;7.10;;;;;;;2.82;59.34;97690.59;4400818;32;20497;-96
2022/12/11 03:57:28;;;;;;;18.83;7.35;;;;;;;2.61;59.32;97703.28;4387551;32;20089;-94
2022/12/11 03:59:54;;;;;;;15.43;7.47;;;;;;;2.58;59.33;97697.38;4390642;32;20109;-94
2022/12/11 04:02:19;;;;;;;17.20;7.82;;;;;;;2.74;59.33;97708.84;4385164;32;20109;-95
2022/12/11 04:04:44;;;;;;;15.95;6.57;;;;;;;2.80;59.34;97711.19;4392450;32;22250;-94
2022/12/11 04:07:10;;;;;;;20.35;7.82;;;;;;;2.88;59.34;97721.22;4400327;32;20090;-94
2022/12/11 04:09:35;;;;;;;16.80;7.60;;;;;;;2.92;59.34;97728.78;4411195;32;28423;-92
2022/12/11 04:12:00;;;;;;;19.75;7.15;;;;;;;2.84;59.34;97719.63;4411361;32;21094;-93
2022/12/11 04:17:10;;;;;;;17.48;7.62;;;;;;;2.82;59.33;97729.13;4388411;32;20108;-92
2022/12/11 04:25:05;;;;;;;16.33;6.72;;;;;;;2.75;59.33;97723.34;4399244;32;20168;-96
2022/12/11 04:27:49;;;;;;;17.30;7.65;;;;;;;2.62;59.32;97725.50;4399271;32;20219;-96
2022/12/11 04:30:20;;;;;;;17.50;7.37;;;;;;;2.69;59.33;97726.12;4416050;32;20124;-95
2022/12/11 04:32:45;;;;;;;15.30;7.20;;;;;;;2.76;59.33;97727.59;4387359;32;20117;-94
2022/12/11 04:35:11;;;;;;;16.27;7.55;;;;;;;2.64;59.32;97740.88;4399352;32;20110;-94
2022/12/11 04:37:36;;;;;;;18.73;8.27;;;;;;;2.55;59.32;97741.12;4405771;32;20089;-95
2022/12/11 04:40:06;;;;;;;20.15;8.27;;;;;;;2.49;59.31;97734.47;4401931;32;20143;-95
2022/12/11 04:42:31;;;;;;;;;;;;;;;2.56;59.32;97735.09;4412097;32;20129;-91
2022/12/11 04:44:57;;;;;;;18.60;7.17;;;;;;;2.68;59.33;97750.97;4410429;32;19986;-94
2022/12/11 04:47:22;;;;;;;18.37;8.25;;;;;;;2.61;59.32;97752.06;4389915;32;20234;-94
2022/12/11 04:49:47;;;;;;;19.40;8.20;;;;;;;2.58;59.33;97734.16;4396456;32;20120;-94
2022/12/11 04:52:13;;;;;;;13.57;6.78;;;;;;;2.61;59.32;97764.91;4409922;32;20281;-95
2022/12/11 04:54:38;;;;;;;16.15;6.82;;;;;;;2.55;59.32;97777.94;4404541;32;20201;-94
2022/12/11 04:57:04;;;;;;;18.20;8.07;;;;;;;2.62;59.32;97768.31;4412665;32;20140;-92
2022/12/11 04:59:31;;;;;;;21.95;8.95;;;;;;;2.57;59.32;97775.31;4412975;32;21495;-95
2022/12/11 05:01:56;;;;;;;19.02;7.72;;;;;;;2.55;59.32;97765.09;4410136;32;20124;-92
2022/12/11 05:04:21;;;;;;;13.95;7.20;;;;;;;2.49;59.31;97775.56;4387635;32;20181;-93
2022/12/11 05:06:48;;;;;;;13.43;6.72;;;;;;;2.52;59.32;97780.59;4394657;32;20113;-93
2022/12/11 05:09:14;;;;;;;14.87;6.75;;;;;;;2.56;59.32;97789.88;4411723;32;20098;-93
2022/12/11 05:11:39;;;;;;;15.57;6.82;;;;;;;2.55;59.32;97780.50;4412528;32;26553;-92
2022/12/11 05:14:04;;;;;;;14.15;6.85;;;;;;;2.46;59.31;97796.19;4411100;32;20156;-92
2022/12/11 05:16:30;;;;;;;13.77;6.47;;;;;;;2.65;59.33;97787.03;4397641;32;20497;-93
2022/12/11 05:18:55;;;;;;;15.52;6.28;;;;;;;2.59;59.32;97786.38;4417930;32;20394;-93
2022/12/11 05:21:21;;;;;;;17.42;6.78;;;;;;;2.41;59.31;97777.53;4400301;32;20102;-92
2022/12/11 05:23:46;;;;;;;15.65;7.28;;;;;;;2.42;59.32;97787.75;4398198;32;20101;-94
2022/12/11 05:26:17;;;;;;;12.85;4.68;;;;;;;2.38;59.31;97786.19;4409947;32;20177;-92
2022/12/11 05:28:43;;;;;;;14.65;6.47;;;;;;;2.30;59.31;97798.37;4379442;32;20754;-92
2022/12/11 05:31:16;;;;;;;16.17;6.60;;;;;;;2.35;59.31;97793.09;4422110;32;20105;-93
2022/12/11 05:33:42;;;;;;;12.45;5.82;;;;;;;2.29;59.31;97780.47;4388360;32;20114;-92
2022/12/11 05:36:07;;;;;;;12.50;5.07;;;;;;;2.30;59.31;97794.97;4413066;32;20098;-95
2022/12/11 05:38:33;;;;;;;10.43;5.60;;;;;;;2.20;59.29;97779.03;4413190;32;20146;-94
2022/12/11 05:41:00;;;;;;;12.88;6.32;;;;;;;2.30;59.31;97789.84;4407189;32;20180;-94
2022/12/11 05:43:26;;;;;;;9.85;5.40;;;;;;;2.19;59.30;97792.75;4387774;32;20081;-92
2022/12/11 05:45:51;;;;;;;12.77;5.72;;;;;;;2.25;59.30;97792.56;4388036;32;20124;-94
2022/12/11 05:48:16;;;;;;;13.07;6.00;;;;;;;2.28;59.31;97784.75;4397825;32;20145;-94
2022/12/11 05:50:42;;;;;;;13.27;5.87;;;;;;;2.20;59.30;97776.47;4387795;32;20195;-93
2022/12/11 05:53:07;;;;;;;13.62;5.65;;;;;;;2.27;59.30;97784.81;4407286;32;20148;-93
2022/12/11 05:55:33;;;;;;;11.52;5.75;;;;;;;2.36;59.31;97789.66;4411229;32;20748;-93
2022/12/11 05:57:59;;;;;;;15.48;6.12;;;;;;;2.21;59.29;97790.13;4398794;32;20074;-94
2022/12/11 06:00:24;;;;;;;13.02;5.70;;;;;;;2.21;59.29;97785.00;4408469;32;20177;-94
2022/12/11 06:02:49;;;;;;;11.35;5.35;;;;;;;2.16;59.30;97803.09;4402132;32;20109;-91
2022/12/11 06:05:15;;;;;;;10.82;4.95;;;;;;;2.31;59.31;97810.34;4403884;32;20138;-93
2022/12/11 06:07:40;;;;;;;13.35;6.03;;;;;;;2.28;59.30;97812.16;4386204;32;20117;-95
2022/12/11 06:10:06;;;;;;;14.23;6.55;;;;;;;2.30;59.31;97818.09;4394718;32;23815;-95
2022/12/11 06:12:31;;;;;;;11.55;4.95;;;;;;;2.42;59.31;97830.56;4385749;32;20481;-96
2022/12/11 06:14:57;;;;;;;11.23;5.43;;;;;;;2.33;59.31;97851.37;4386779;32;20153;-93
2022/12/11 06:17:22;;;;;;;10.75;6.22;;;;;;;2.19;59.30;97820.16;4412399;32;22536;-94
2022/12/11 06:19:47;;;;;;;12.30;6.28;;;;;;;2.18;59.30;97844.13;4412542;32;20099;-94
2022/12/11 06:22:13;;;;;;;13.90;6.93;;;;;;;2.31;59.31;97853.97;4387267;32;20117;-91
2022/12/11 06:24:38;;;;;;;12.63;5.65;;;;;;;2.30;59.31;97851.47;4412826;32;20147;-92
2022/12/11 06:27:04;;;;;;;13.82;5.55;;;;;;;2.36;59.31;97846.13;4412774;32;20098;-93
2022/12/11 06:29:29;;;;;;;14.77;5.70;;;;;;;2.10;59.29;97852.03;4408235;32;26140;-92
2022/12/11 06:31:54;;;;;;;12.02;6.03;;;;;;;2.12;59.29;97855.38;4417589;32;25225;-93
2022/12/11 06:34:20;;;;;;;12.30;5.60;;;;;;;2.22;59.30;97861.13;4408111;32;20378;-93
2022/12/11 06:36:45;;;;;;;18.75;7.20;;;;;;;2.20;59.29;97868.88;4388215;32;23422;-93
2022/12/11 06:39:11;;;;;;;12.63;6.05;;;;;;;2.24;59.30;97878.16;4399644;32;21143;-92
2022/12/11 06:41:36;;;;;;;14.82;6.05;;;;;;;2.10;59.29;97875.13;4413783;32;20475;-95
2022/12/11 06:44:02;;;;;;;14.87;6.68;;;;;;;2.15;59.29;97881.00;4401131;32;20397;-96
2022/12/11 06:46:27;;;;;;;13.13;6.07;;;;;;;2.21;59.29;97882.53;4412293;32;20152;-95
2022/12/11 06:48:53;;;;;;;16.73;6.32;;;;;;;2.27;59.29;97882.34;4414289;32;25894;-94
2022/12/11 06:51:22;;;;;;;12.75;5.55;;;;;;;2.11;59.29;97889.63;4400249;32;20131;-94
2022/12/11 06:53:52;;;;;;;10.20;5.32;;;;;;;2.26;59.30;97885.81;4400739;32;20725;-94
2022/12/11 06:56:17;;;;;;;14.98;5.85;;;;;;;2.30;59.31;97889.97;4379067;32;20086;-94
2022/12/11 06:58:43;;;;;;;11.63;5.68;;;;;;;2.36;59.31;97892.34;4406647;32;20114;-91
2022/12/11 07:01:18;;;;;;;12.57;6.30;;;;;;;2.38;59.31;97903.44;4399488;32;20101;-94
2022/12/11 07:03:44;;;;;;;13.70;5.95;;;;;;;2.39;59.32;97892.28;4401967;32;20090;-93
2022/12/11 07:06:09;;;;;;;11.75;5.85;;;;;;;2.41;59.31;97898.22;4411565;32;20085;-95
2022/12/11 07:08:35;;;;;;;13.15;6.18;;;;;;;2.53;59.32;97912.41;4396854;32;20107;-95
2022/12/11 07:11:08;;;;;;;15.63;5.40;;;;;;;2.58;59.32;97895.13;4401918;32;20121;-92
2022/12/11 07:13:34;;;;;;;9.55;5.20;;;;;;;2.50;59.32;97900.50;4412805;32;20054;-94
2022/12/11 07:16:03;;;;;;;11.27;4.82;;;;;;;2.37;59.31;97896.63;4410054;32;20164;-94
2022/12/11 07:18:29;;;;;;;9.95;4.07;;;;;;;2.51;59.32;97891.91;4390488;32;20106;-93
2022/12/11 07:20:57;;;;;;;10.15;5.20;;;;;;;2.55;59.32;97893.50;4397359;32;20132;-94
2022/12/11 07:23:23;;;;;;;11.63;5.55;;;;;;;2.44;59.31;97893.81;4392315;32;20104;-93
2022/12/11 07:25:48;;;;;;;10.77;5.07;;;;;;;2.46;59.31;97888.66;4413765;32;20173;-93
2022/12/11 07:28:14;;;;;;;10.90;4.80;;;;;;;2.54;59.32;97890.97;4409571;32;20194;-93
2022/12/11 07:30:39;;;;;;;9.63;4.45;;;;;;;2.59;59.32;97907.94;4382146;32;20137;-92
2022/12/11 07:33:05;;;;;;;7.07;3.37;;;;;;;2.77;59.33;97912.53;4396586;32;22127;-95
2022/12/11 07:35:33;;;;;;;11.32;4.22;;;;;;;2.64;59.32;97905.25;4419712;32;20116;-92
2022/12/11 07:37:58;;;;;;;9.07;4.05;;;;;;;2.61;59.32;97913.06;4410379;32;20155;-93
2022/12/11 07:40:24;;;;;;;7.90;3.90;;;;;;;2.62;59.32;97897.59;4429975;32;20105;-93
2022/12/11 07:42:49;;;;;;;11.32;4.00;;;;;;;2.74;59.33;97916.91;4411923;32;20121;-93
2022/12/11 07:45:14;;;;;;;9.38;3.85;;;;;;;2.61;59.32;97923.31;4400295;32;20104;-93
2022/12/11 07:47:40;;;;;;;6.90;3.95;;;;;;;2.72;59.32;97934.09;4413270;32;20131;-93
2022/12/11 07:50:05;;;;;;;9.68;4.25;;;;;;;2.68;59.33;97941.06;4399694;32;21432;-94
2022/12/11 07:52:32;;;;;;;6.75;2.53;;;;;;;2.56;59.32;97946.53;4409724;32;20125;-94
2022/12/11 07:54:57;;;;;;;8.00;3.03;;;;;;;2.58;59.32;97944.78;4410308;32;20086;-93
2022/12/11 07:57:23;;;;;;;6.30;3.30;;;;;;;2.74;59.33;97948.59;4411821;32;20121;-95
2022/12/11 07:59:49;;;;;;;5.85;2.97;;;;;;;2.84;59.33;97938.91;4401638;32;21273;-95
2022/12/11 08:02:14;;;;;;;7.72;3.42;;;;;;;2.99;59.34;97945.28;4424261;32;20129;-94
2022/12/11 08:04:40;;;;;;;5.37;2.47;;;;;;;3.13;59.35;97937.16;4399697;32;20093;-94
2022/12/11 08:07:05;;;;;;;6.05;3.35;;;;;;;2.84;59.33;97959.44;4400098;32;20164;-94
2022/12/11 08:09:30;;;;;;;5.10;2.95;;;;;;;2.88;59.34;97973.03;4387455;32;20093;-93
2022/12/11 08:11:56;;;;;;;7.03;3.35;;;;;;;3.07;59.34;97977.56;4405771;32;20387;-94
2022/12/11 08:14:21;;;;;;;5.03;2.70;;;;;;;3.13;59.35;97997.13;4411895;32;20137;-94
2022/12/11 08:16:48;;;;;;;7.22;3.10;;;;;;;3.06;59.35;97995.59;4411918;32;20416;-93
2022/12/11 08:19:14;;;;;;;5.20;2.25;;;;;;;2.93;59.34;98007.16;4398380;32;20097;-95
2022/12/11 08:21:39;;;;;;;8.15;2.97;;;;;;;3.01;59.34;98030.91;4403500;32;20116;-94
2022/12/11 08:24:05;;;;;;;4.95;2.87;;;;;;;3.12;59.35;98008.31;4411060;32;20078;-94
2022/12/11 08:26:30;;;;;;;5.37;2.30;;;;;;;3.13;59.35;98020.25;4398086;32;20128;-93
2022/12/11 08:28:56;;;;;;;5.20;2.30;;;;;;;3.17;59.34;98021.84;4393487;32;20150;-93
2022/12/11 08:31:21;;;;;;;4.28;2.17;;;;;;;2.98;59.34;98026.69;4401920;32;20090;-95
2022/12/11 08:33:47;;;;;;;4.60;2.42;;;;;;;3.21;59.36;98032.88;4405619;32;20101;-93
2022/12/11 08:36:15;;;;;;;4.57;2.33;;;;;;;3.22;59.36;98032.00;4399175;32;20136;-92
2022/12/11 08:38:41;;;;;;;4.82;2.35;;;;;;;3.36;59.36;98033.28;4385692;32;20109;-93
2022/12/11 08:41:27;;;;;;;4.65;2.25;;;;;;;3.12;59.35;98034.00;4410482;32;20119;-94
2022/12/11 08:43:54;;;;;;;7.53;2.75;;;;;;;3.24;59.36;98054.19;4390784;32;20105;-95
2022/12/11 08:46:22;;;;;;;4.55;2.58;;;;;;;3.21;59.35;98066.31;4396020;32;20158;-94
2022/12/11 08:48:48;;;;;;;4.78;2.30;;;;;;;3.13;59.35;98061.41;4414718;32;20113;-93
2022/12/11 08:51:16;;;;;;;10.55;4.15;;;;;;;3.03;59.35;98067.66;4400693;32;20120;-95
2022/12/11 08:53:42;;;;;;;5.78;2.83;;;;;;;3.06;59.35;98070.16;4412765;32;20102;-94
2022/12/11 08:56:12;;;;;;;6.50;3.33;;;;;;;3.23;59.35;98057.66;4400187;32;20093;-94
2022/12/11 08:58:38;;;;;;;;;;;;;;;3.18;59.35;98064.66;4413830;32;20105;-96
2022/12/11 09:01:21;;;;;;;5.82;2.53;;;;;;;3.15;59.35;98066.50;4413536;32;19977;-94
2022/12/11 09:03:47;;;;;;;6.80;3.20;;;;;;;3.22;59.35;98071.41;4387871;32;20102;-94
2022/12/11 09:06:15;;;;;;;4.62;2.28;;;;;;;3.34;59.36;98065.06;4386719;32;20192;-95
2022/12/11 09:08:41;;;;;;;5.10;2.15;;;;;;;3.27;59.36;98072.09;4394868;32;20471;-94
2022/12/11 09:11:09;;;;;;;3.65;2.12;;;;;;;3.19;59.35;98070.66;4390762;32;20454;-95
2022/12/11 09:13:34;;;;;;;5.95;2.30;;;;;;;3.32;59.37;98072.81;4413702;32;20116;-95
2022/12/11 09:16:08;;;;;;;4.22;2.20;;;;;;;3.38;59.36;98074.38;4401697;32;20133;-96
2022/12/11 09:18:33;;;;;;;4.62;2.25;;;;;;;3.12;59.35;98079.44;4414211;32;20873;-93
2022/12/11 09:21:18;;;;;;;3.08;1.73;;;;;;;3.20;59.35;98064.63;4401801;32;20101;-93
2022/12/11 09:23:44;;;;;;;4.72;2.00;;;;;;;3.17;59.36;98075.84;4413976;32;20081;-94
2022/12/11 09:26:11;;;;;;;4.15;2.10;;;;;;;3.21;59.35;98080.00;4401463;32;20502;-94
2022/12/11 09:28:36;;;;;;;3.85;2.45;;;;;;;3.16;59.34;98069.00;4414427;32;20786;-94
2022/12/11 09:31:18;;;;;;;4.50;2.30;;;;;;;3.06;59.35;98096.69;4402567;32;20097;-94
2022/12/11 09:33:43;;;;;;;4.82;2.45;;;;;;;3.08;59.35;98089.81;4389355;32;20161;-96
2022/12/11 09:36:09;;;;;;;5.03;2.20;;;;;;;3.04;59.34;98095.06;4401099;32;20097;-94
2022/12/11 09:38:35;;;;;;;4.25;1.90;;;;;;;3.03;59.35;98077.94;4402301;32;20141;-94
2022/12/11 09:41:01;;;;;;;6.18;1.90;;;;;;;2.97;59.34;98096.13;4401272;32;20760;-96
2022/12/11 09:43:40;;;;;;;7.03;2.40;;;;;;;3.19;59.35;98088.66;4400682;32;20090;-94
2022/12/11 09:46:15;;;;;;;5.37;2.62;;;;;;;3.14;59.35;98093.94;4401133;32;20074;-95
2022/12/11 09:48:41;;;;;;;6.93;2.80;;;;;;;3.27;59.36;98069.53;4413734;32;20105;-95
2022/12/11 09:51:18;;;;;;;6.30;2.60;;;;;;;3.21;59.35;98076.59;4389189;32;20446;-94
2022/12/11 09:53:43;;;;;;;4.32;2.17;;;;;;;3.36;59.36;98068.44;4401947;32;20149;-94
2022/12/11 09:56:13;;;;;;;3.47;1.92;;;;;;;3.12;59.35;98064.84;4402979;32;20132;-94
2022/12/11 09:58:50;;;;;;;4.93;2.47;;;;;;;3.19;59.35;98058.63;4401325;32;20159;-95
2022/12/11 10:01:46;;;;;;;5.90;2.45;;;;;;;3.21;59.35;98058.59;4414048;32;20116;-95
2022/12/11 10:04:36;;;;;;;4.40;2.22;;;;;;;3.15;59.35;98049.34;4403748;32;20082;-94
2022/12/11 10:07:14;;;;;;;6.30;2.45;;;;;;;3.06;59.34;98039.31;4414664;32;20455;-94
2022/12/11 10:10:05;;;;;;;5.47;2.20;;;;;;;3.10;59.35;98051.22;4400593;32;20143;-94
2022/12/11 10:12:39;;;;;;;5.47;2.15;;;;;;;3.05;59.34;98058.19;4402718;32;20098;-93
2022/12/11 10:15:33;;;;;;;6.65;3.65;;;;;;;3.05;59.34;98055.63;4427723;32;20094;-94
2022/12/11 10:17:59;;;;;;;223.62;70.68;;;;;;;3.10;59.35;98064.06;4401191;32;20070;-94
2022/12/11 10:20:35;;;;;;;342.15;116.40;;;;;;;3.11;59.35;98076.03;4413877;32;20148;-95
2022/12/11 10:23:01;;;;;;;21.35;11.63;;;;;;;3.12;59.35;98080.28;4401961;32;20538;-94
2022/12/11 10:25:36;;;;;;;16.10;10.77;;;;;;;3.19;59.35;98071.50;4415573;32;20090;-96
2022/12/11 10:28:14;;;;;;;6.00;3.53;;;;;;;3.17;59.34;98075.00;4416105;32;20066;-95
2022/12/11 10:31:11;;;;;;;5.32;3.03;;;;;;;3.24;59.36;98087.63;4416129;32;20114;-96
2022/12/11 10:33:52;;;;;;;5.78;2.80;;;;;;;3.16;59.34;98084.44;4415320;32;20094;-95
2022/12/11 10:36:19;;;;;;;5.00;2.58;;;;;;;3.20;59.36;98075.75;4400827;32;20671;-95
2022/12/11 10:38:45;;;;;;;7.10;3.03;;;;;;;3.16;59.34;98074.16;4414604;32;20106;-92
2022/12/11 10:41:13;;;;;;;8.18;2.97;;;;;;;3.17;59.34;98083.56;4400401;32;20510;-95
2022/12/11 10:43:42;;;;;;;6.05;3.60;;;;;;;3.32;59.36;98113.13;4413115;32;20098;-92
2022/12/11 10:46:18;;;;;;;4.90;2.37;;;;;;;3.27;59.36;98102.13;4401022;32;20106;-92
2022/12/11 10:48:57;;;;;;;18.95;9.27;;;;;;;3.19;59.35;98104.06;4401024;32;20132;-93
2022/12/11 10:51:32;;;;;;;180.30;69.97;;;;;;;3.16;59.35;98111.88;4400759;32;20109;-96
2022/12/11 10:54:03;;;;;;;84.80;33.40;;;;;;;3.40;59.37;98098.31;4412500;32;20924;-96
2022/12/11 10:56:30;;;;;;;107.15;42.53;;;;;;;3.24;59.35;98104.78;4400609;32;20094;-96
2022/12/11 10:58:56;;;;;;;82.62;32.50;;;;;;;3.41;59.37;98102.56;4400467;32;20106;-93
2022/12/11 11:01:23;;;;;;;208.95;70.62;;;;;;;3.41;59.37;98092.28;4414680;32;20144;-95
2022/12/11 11:03:59;;;;;;;41.03;18.08;;;;;;;3.21;59.35;98090.28;4414481;32;20155;-94
2022/12/11 11:06:24;;;;;;;16.52;9.05;;;;;;;3.02;59.34;98094.25;4401679;32;20454;-94
2022/12/11 11:08:52;;;;;;;13.43;6.47;;;;;;;3.10;59.35;98094.91;4413086;32;20163;-94
2022/12/11 11:11:19;;;;;;;15.80;6.60;;;;;;;3.18;59.35;98095.53;4400454;32;20082;-94
2022/12/11 11:13:45;;;;;;;18.02;9.82;;;;;;;3.36;59.36;98097.56;4397778;32;20102;-95
2022/12/11 11:16:15;;;;;;;8.93;4.37;;;;;;;3.38;59.36;98097.50;4384944;32;20136;-95
2022/12/11 11:18:41;;;;;;;7.12;3.70;;;;;;;3.19;59.36;98086.06;4387869;32;20079;-95
2022/12/11 11:21:06;;;;;;;9.52;5.07;;;;;;;3.22;59.35;98091.97;4390373;32;20106;-94
2022/12/11 11:23:31;;;;;;;12.75;7.55;;;;;;;3.36;59.36;98092.41;4395525;32;20104;-95
2022/12/11 11:25:58;;;;;;;15.23;9.13;;;;;;;3.50;59.37;98075.72;4393436;32;20147;-96
2022/12/11 11:28:29;;;;;;;12.23;6.03;;;;;;;3.43;59.36;98087.94;4402609;32;20773;-96
2022/12/11 11:31:00;;;;;;;10.38;5.37;;;;;;;3.42;59.36;98091.38;4405754;32;20110;-89
2022/12/11 11:33:25;;;;;;;8.18;4.50;;;;;;;3.42;59.37;98082.84;4399538;32;20148;-91
2022/12/11 11:35:53;;;;;;;13.10;7.03;;;;;;;3.35;59.37;98100.19;4381915;32;21576;-90
2022/12/11 11:38:20;;;;;;;7.35;4.90;;;;;;;3.38;59.36;98100.94;4412230;32;20114;-91
2022/12/11 11:41:04;;;;;;;6.35;3.17;;;;;;;3.42;59.37;98098.25;4397979;32;20118;-91
2022/12/11 11:43:47;;;;;;;10.13;5.32;;;;;;;3.34;59.36;98121.66;4391250;32;20518;-91
2022/12/11 11:46:44;;;;;;;8.27;4.85;;;;;;;3.52;59.37;98107.38;4399488;32;20124;-89
2022/12/11 11:49:13;;;;;;;5.68;2.97;;;;;;;3.60;59.38;98090.84;4370394;32;20102;-86
2022/12/11 11:52:14;;;;;;;8.05;3.20;;;;;;;3.59;59.37;98094.31;4409104;32;20118;-89
2022/12/11 11:55:14;;;;;;;7.70;3.55;;;;;;;3.39;59.37;98101.78;4376512;32;20156;-90